Terminal Aerodrome Forecast
Issued by NWS Wichita, KS

Home | Current Version | Previous Version | Text Only | Print | Product List | Glossary On
Versions: 1 2 3 4 5 6 7 8 9 10 11 12 13 14 15 16 17
396
FTUS43 KICT 272322
TAFICT
TAF
KICT 272322Z 2800/2824 11014G20KT P6SM VCSH OVC080
     FM280200 10014G20KT P6SM VCTS BKN025 OVC060CB
      TEMPO 2802/2806 5SM TSRA
     FM280800 11010KT 6SM BR OVC012
     FM281200 VRB04KT 5SM BR OVC008
     FM281500 17006KT P6SM BKN020
     FM282000 10006KT P6SM FEW035 BKN050=

USA.gov is the U.S. government's official web portal to all federal, state and local government web resources and services.